Logo AVAMET
Benvolgut visitant, si us plau, ingressa Recuperar contrasenya
AVAMET paisatges

Xàtiva IES Josep de Ribera

Dades diàries. Acumulats / Últims 30 dies disponibles

Data Temperatura (°C) Humitat rel. (%) Pressió rel. (hPa) Vent (km/h) Precipitació
Mínima Mitjana Màxima Amplitud
tèrmica
Mínima Mitjana Màxima Mínima Mitjana Màxima Predom. Mitjana Ràfega
màxima
Total
(mm)
Índex-n
Mínima Mitjana Màxima Mínima Mitjana Màxima n
0 a 1
P0 max
mm 5'
Dades mensuals acumulades fins l'últim dia disponible
02/2020 5,1 9,7 13,1 14,7 13,3 21,0 26,1 21,0 17 59 85 1.012 1.018 1.024   2,0 29,0 5,0
Dades anuals acumulades fins l'últim dia disponible
2020 1,8 7,4 13,8 12,1 7,4 17,7 26,1 24,3 17 62 88 1.003 1.017 1.025   2,4 69,2 340,6
Últims 30 dies disponibles
19-02-2020 9,2     13,0     17,4 8,2 55 75 85 1.020 1.022 1.024 NNW 2,3 16,1 0,2
18-02-2020 11,3     12,5     13,3 2,0 69 78 84 1.021 1.022 1.024 SSE 1,4 16,1 4,4 0,54 1,20
17-02-2020 10,1     16,3     24,3 14,2 26 57 80 1.014 1.017 1.021 SSE 2,6 29,0 0,2
16-02-2020 8,6     14,6     24,5 15,9 32 70 85 1.015 1.018 1.019 NE 1,8 24,1 0,0
15-02-2020 7,1     13,4     21,4 14,3 39 61 76 1.015 1.017 1.019 ESE 1,6 17,7 0,0
14-02-2020 9,4     14,5     21,3 11,9 36 53 67 1.015 1.016 1.018 E 1,8 19,3 0,0
13-02-2020 9,7     15,4     22,8 13,1 31 58 79 1.012 1.014 1.016 SSE 1,8 17,7 0,0
12-02-2020 10,0     13,7     19,3 9,3 47 64 74 1.014 1.015 1.017 NNW 2,6 25,7 0,0
11-02-2020 12,7     19,8     24,7 12,0 35 48 70 1.012 1.015 1.017 ESE 2,3 14,5 0,0
10-02-2020 13,1     17,7     23,3 10,2 35 44 52 1.018 1.021 1.023 SSO 4,7 22,5 0,0
09-02-2020 7,6     13,2     20,3 12,7 37 60 79 1.018 1.021 1.023 SE 1,3 16,1 0,0
08-02-2020 5,4     11,5     19,8 14,4 31 63 77 1.014 1.016 1.019 SE 1,3 25,7 0,2
07-02-2020 7,7     10,2     15,2 7,5 51 66 75 1.014 1.016 1.017 ESE 0,6 8,0 0,0
06-02-2020 5,1     10,2     16,8 11,7 39 66 79 1.015 1.018 1.020 E 1,6 17,7 0,0
05-02-2020 8,9     12,5     16,1 7,2 51 61 75 1.018 1.020 1.022 SE 2,2 24,1 0,0
04-02-2020 12,9     19,0     26,1 13,2 17 40 64 1.013 1.017 1.019 E 3,1 27,4 0,0
03-02-2020 10,5     16,9     25,7 15,2 29 53 68 1.017 1.019 1.022 E 0,8 9,7 0,0
02-02-2020 12,5     17,4     23,6 11,1 38 55 68 1.018 1.019 1.021 SSE 0,9 14,5 0,0
01-02-2020 11,6     17,2     22,8 11,2 40 55 68 1.013 1.015 1.018 WNW 2,6 27,4 0,0
31-01-2020 13,8     16,4     19,3 5,5 45 50 57 1.013 1.015 1.016 SSO 3,6 29,0 0,0
30-01-2020 10,7     15,9     20,3 9,6 32 49 67 1.012 1.014 1.015 SSW 3,2 29,0 0,0
29-01-2020 11,7     16,3     20,2 8,5 43 52 68 1.013 1.014 1.016 WNW 3,2 27,4 0,0
28-01-2020 12,4     15,6     17,6 5,2 46 50 56 1.013 1.014 1.015 SSW 3,4 27,4 0,0
27-01-2020 6,9     11,9     16,3 9,4 37 51 66 1.013 1.015 1.017 SSW 4,0 29,0 0,0
26-01-2020 8,6     12,4     16,8 8,2 34 61 84 1.010 1.013 1.017 WNW 2,7 22,5 0,0
25-01-2020 8,7     10,6     13,2 4,5 75 81 84 1.008 1.011 1.013 ENE 0,6 9,7 0,4
24-01-2020 6,8     9,8     12,2 5,4 76 81 85 1.012 1.013 1.015 E 0,6 9,7 0,0
23-01-2020 4,3     8,4     13,7 9,4 68 79 85 1.011 1.012 1.014 E 1,1 12,9 0,2
22-01-2020 6,3     9,1     11,8 5,5 75 84 87 1.008 1.010 1.012 NNE 0,8 25,7 0,2
21-01-2020 6,6     8,9     10,8 4,2 86 87 87 1.003 1.007 1.011 SSW 3,1 37,0 139,0
Últims 13 mesos disponibles
01/2020 1,8 6,1 13,8 10,5 7,4 15,6 20,3 18,5 44 64 87 1.007 1.016 1.024 E 2,7 69,2 335,6
12/2019 3,5 9,7 18,0 13,3 12,1 18,0 25,4 21,9 38 60 86 994 1.010 1.024 E 3,1 72,4 149,2
11/2019 3,5 12,0 20,9 15,7 15,2 19,6 27,1 23,6 35 47 63 990 1.003 1.010 SSO 3,9 51,5 6,0
10/2019 9,8 15,3 19,6 20,2 15,9 25,7 34,1 24,3 33 56 74 1.000 1.008 1.013 E 2,3 33,8 48,8
09/2019 14,6 19,6 23,2 23,9 20,4 28,7 36,4 21,8 31 62 82 1.002 1.009 1.016 NNE 3,9 56,3 116,4
08/2019 17,6 22,0 26,3 27,2 28,3 33,5 41,9 24,3 35 58 72 1.002 1.007 1.012 NNE 4,5 40,2 7,0
07/2019 20,8 22,6 26,1 27,9 28,6 34,1 39,9 19,1 32 54 70 998 1.006 1.013 NNE 5,3 46,7 2,6
06/2019 12,7 17,7 22,1 23,7 21,7 30,2 39,2 26,5 27 52 70 1.001 1.007 1.013 NNE 5,2 48,3 0,0
05/2019 8,1 14,3 21,8 19,7 19,3 26,0 32,1 24,0 40 57 78 997 1.007 1.015 NNE 4,4 49,9 20,4
04/2019 7,8 11,2 15,4 15,6 13,5 20,6 29,1 21,3 41 63 93 991 1.004 1.016 SSW 5,0 49,9 162,6
03/2019 4,2 8,3 13,4 14,7 12,5 21,2 28,6 24,4 29 52 88 1.002 1.014 1.021 E 3,3 45,1 61,6
02/2019 2,1 6,3 10,9 12,2 12,9 18,8 25,8 23,7 33 55 80 987 1.016 1.025 E 2,9 56,3 0,0
01/2019 -1,5 5,3 13,1 10,6 11,6 16,6 21,6 23,1 38 55 75 995 1.010 1.022 WNW 2,6 49,9 0,4
Tots els anys disponibles
2019 -1,5 13,8 26,3 18,8 11,6 24,5 41,9 43,4 27 56 93 987 1.009 1.025 NNE 3,9 72,4 575,2
Temperatura (°C)
Humitat relativa (%)
Velocitat del vent i ràfega màxima (km/h)
Direcció del vent (°)
Precipitació (mm)
Nota sobre les dades: s'avisa a l'usuari de la provisionalitat i no oficialitat d'aquestes dades
Logo AVAMET blanc
Web allotjada a Sollutia
Llicència de Creative CommonsLa web d'AVAMET i els seus continguts estan subjectes a una llicència de
Reconeixement - No Comercial - Compartir igual
Últimes estacions:  Forcall (Ajuntament Soci), Sant Joanet (Soci), Marines (Soci), Vilallonga - Serpis (Soci), Sorita (AVAMET), Gorga (Soci) - - -